sensor_id;sensor_type;location;lat;lon;timestamp;P1;durP1;ratioP1;P2;durP2;ratioP2
25922;SDS011;13725;51.170;4.442;2022-12-29T00:01:36;2.33;;;1.30;;
25922;SDS011;13725;51.170;4.442;2022-12-29T00:04:03;5.38;;;1.60;;
25922;SDS011;13725;51.170;4.442;2022-12-29T00:06:29;2.88;;;1.65;;
25922;SDS011;13725;51.170;4.442;2022-12-29T00:08:56;2.05;;;1.50;;
25922;SDS011;13725;51.170;4.442;2022-12-29T00:11:25;2.90;;;1.70;;
25922;SDS011;13725;51.170;4.442;2022-12-29T00:13:52;7.13;;;1.80;;
25922;SDS011;13725;51.170;4.442;2022-12-29T00:16:37;2.67;;;1.77;;
25922;SDS011;13725;51.170;4.442;2022-12-29T00:19:05;2.00;;;1.70;;
25922;SDS011;13725;51.170;4.442;2022-12-29T00:21:31;3.33;;;1.52;;
25922;SDS011;13725;51.170;4.442;2022-12-29T00:24:16;2.10;;;1.70;;
25922;SDS011;13725;51.170;4.442;2022-12-29T00:29:45;4.80;;;1.17;;
25922;SDS011;13725;51.170;4.442;2022-12-29T00:32:29;2.28;;;1.45;;
25922;SDS011;13725;51.170;4.442;2022-12-29T00:35:17;2.75;;;1.10;;
25922;SDS011;13725;51.170;4.442;2022-12-29T00:37:55;2.10;;;1.20;;
25922;SDS011;13725;51.170;4.442;2022-12-29T00:40:42;2.58;;;1.10;;
25922;SDS011;13725;51.170;4.442;2022-12-29T00:43:27;2.33;;;1.05;;
25922;SDS011;13725;51.170;4.442;2022-12-29T00:46:11;2.20;;;0.82;;
25922;SDS011;13725;51.170;4.442;2022-12-29T00:48:37;1.75;;;1.05;;
25922;SDS011;13725;51.170;4.442;2022-12-29T00:51:21;2.65;;;0.80;;
25922;SDS011;13725;51.170;4.442;2022-12-29T00:53:47;1.92;;;0.80;;
25922;SDS011;13725;51.170;4.442;2022-12-29T00:56:12;1.52;;;0.77;;
25922;SDS011;13725;51.170;4.442;2022-12-29T00:58:38;2.90;;;0.90;;
25922;SDS011;13725;51.170;4.442;2022-12-29T01:01:05;3.60;;;0.80;;
25922;SDS011;13725;51.170;4.442;2022-12-29T01:03:33;1.25;;;0.60;;
25922;SDS011;13725;51.170;4.442;2022-12-29T01:06:01;1.60;;;0.82;;
25922;SDS011;13725;51.170;4.442;2022-12-29T01:08:30;1.40;;;0.70;;
25922;SDS011;13725;51.170;4.442;2022-12-29T01:11:00;2.05;;;0.60;;
25922;SDS011;13725;51.170;4.442;2022-12-29T01:13:28;5.10;;;0.85;;
25922;SDS011;13725;51.170;4.442;2022-12-29T01:15:54;3.13;;;0.82;;
25922;SDS011;13725;51.170;4.442;2022-12-29T01:18:20;3.45;;;0.90;;
25922;SDS011;13725;51.170;4.442;2022-12-29T01:20:46;7.07;;;1.20;;
25922;SDS011;13725;51.170;4.442;2022-12-29T01:23:12;1.95;;;1.27;;
25922;SDS011;13725;51.170;4.442;2022-12-29T01:25:38;3.25;;;0.70;;
25922;SDS011;13725;51.170;4.442;2022-12-29T01:28:04;3.33;;;0.70;;
25922;SDS011;13725;51.170;4.442;2022-12-29T01:30:29;4.05;;;0.75;;
25922;SDS011;13725;51.170;4.442;2022-12-29T01:32:55;1.38;;;0.60;;
25922;SDS011;13725;51.170;4.442;2022-12-29T01:35:21;6.43;;;1.27;;
25922;SDS011;13725;51.170;4.442;2022-12-29T01:37:47;1.10;;;0.50;;
25922;SDS011;13725;51.170;4.442;2022-12-29T01:40:13;3.53;;;0.73;;
25922;SDS011;13725;51.170;4.442;2022-12-29T01:42:39;6.32;;;1.17;;
25922;SDS011;13725;51.170;4.442;2022-12-29T01:45:09;5.13;;;1.05;;
25922;SDS011;13725;51.170;4.442;2022-12-29T01:47:41;4.45;;;0.85;;
25922;SDS011;13725;51.170;4.442;2022-12-29T01:50:22;5.38;;;0.63;;
25922;SDS011;13725;51.170;4.442;2022-12-29T01:52:57;3.75;;;0.98;;
25922;SDS011;13725;51.170;4.442;2022-12-29T01:55:33;6.82;;;1.00;;
25922;SDS011;13725;51.170;4.442;2022-12-29T01:58:03;3.40;;;0.88;;
25922;SDS011;13725;51.170;4.442;2022-12-29T02:00:30;1.88;;;0.60;;
25922;SDS011;13725;51.170;4.442;2022-12-29T02:02:57;2.45;;;0.70;;
25922;SDS011;13725;51.170;4.442;2022-12-29T02:05:25;4.85;;;1.63;;
25922;SDS011;13725;51.170;4.442;2022-12-29T02:07:55;7.05;;;1.73;;
25922;SDS011;13725;51.170;4.442;2022-12-29T02:10:22;5.43;;;0.70;;
25922;SDS011;13725;51.170;4.442;2022-12-29T02:12:50;7.68;;;1.65;;
25922;SDS011;13725;51.170;4.442;2022-12-29T02:15:17;1.77;;;0.80;;
25922;SDS011;13725;51.170;4.442;2022-12-29T02:28:46;5.30;;;0.82;;
25922;SDS011;13725;51.170;4.442;2022-12-29T02:31:53;1.13;;;0.75;;
25922;SDS011;13725;51.170;4.442;2022-12-29T02:34:19;4.85;;;0.75;;
25922;SDS011;13725;51.170;4.442;2022-12-29T02:36:58;3.85;;;0.75;;
25922;SDS011;13725;51.170;4.442;2022-12-29T02:45:33;1.05;;;0.50;;
25922;SDS011;13725;51.170;4.442;2022-12-29T02:48:15;2.65;;;0.80;;
25922;SDS011;13725;51.170;4.442;2022-12-29T02:50:51;4.00;;;0.70;;
25922;SDS011;13725;51.170;4.442;2022-12-29T02:53:24;3.08;;;0.60;;
25922;SDS011;13725;51.170;4.442;2022-12-29T02:56:10;6.13;;;0.90;;
25922;SDS011;13725;51.170;4.442;2022-12-29T02:58:35;3.95;;;0.70;;
25922;SDS011;13725;51.170;4.442;2022-12-29T03:01:06;2.78;;;0.63;;
25922;SDS011;13725;51.170;4.442;2022-12-29T03:03:41;4.57;;;0.80;;
25922;SDS011;13725;51.170;4.442;2022-12-29T03:09:21;5.03;;;1.00;;
25922;SDS011;13725;51.170;4.442;2022-12-29T03:12:04;3.80;;;0.80;;
25922;SDS011;13725;51.170;4.442;2022-12-29T03:15:20;4.10;;;0.80;;
25922;SDS011;13725;51.170;4.442;2022-12-29T03:18:47;5.97;;;0.90;;
25922;SDS011;13725;51.170;4.442;2022-12-29T03:21:22;4.35;;;1.13;;
25922;SDS011;13725;51.170;4.442;2022-12-29T03:24:26;3.53;;;0.60;;
25922;SDS011;13725;51.170;4.442;2022-12-29T03:26:56;4.28;;;1.05;;
25922;SDS011;13725;51.170;4.442;2022-12-29T03:29:27;5.88;;;0.80;;
25922;SDS011;13725;51.170;4.442;2022-12-29T03:31:58;5.15;;;1.02;;
25922;SDS011;13725;51.170;4.442;2022-12-29T03:34:26;2.30;;;0.40;;
25922;SDS011;13725;51.170;4.442;2022-12-29T03:37:02;3.25;;;0.60;;
25922;SDS011;13725;51.170;4.442;2022-12-29T03:39:35;4.95;;;1.08;;
25922;SDS011;13725;51.170;4.442;2022-12-29T03:42:01;2.28;;;0.70;;
25922;SDS011;13725;51.170;4.442;2022-12-29T03:44:34;2.13;;;0.65;;
25922;SDS011;13725;51.170;4.442;2022-12-29T03:47:03;6.30;;;1.00;;
25922;SDS011;13725;51.170;4.442;2022-12-29T03:49:29;7.07;;;1.25;;
25922;SDS011;13725;51.170;4.442;2022-12-29T03:51:55;6.80;;;0.98;;
25922;SDS011;13725;51.170;4.442;2022-12-29T03:54:22;6.10;;;0.98;;
25922;SDS011;13725;51.170;4.442;2022-12-29T03:56:48;7.93;;;0.98;;
25922;SDS011;13725;51.170;4.442;2022-12-29T03:59:19;5.65;;;1.15;;
25922;SDS011;13725;51.170;4.442;2022-12-29T04:01:44;5.03;;;0.63;;
25922;SDS011;13725;51.170;4.442;2022-12-29T04:04:11;5.00;;;0.90;;
25922;SDS011;13725;51.170;4.442;2022-12-29T04:06:37;4.03;;;1.00;;
25922;SDS011;13725;51.170;4.442;2022-12-29T04:09:05;9.73;;;0.82;;
25922;SDS011;13725;51.170;4.442;2022-12-29T04:11:36;7.75;;;0.93;;
25922;SDS011;13725;51.170;4.442;2022-12-29T04:14:04;6.68;;;0.80;;
25922;SDS011;13725;51.170;4.442;2022-12-29T04:16:31;6.10;;;1.10;;
25922;SDS011;13725;51.170;4.442;2022-12-29T04:19:01;4.65;;;0.82;;
25922;SDS011;13725;51.170;4.442;2022-12-29T04:21:27;4.53;;;0.98;;
25922;SDS011;13725;51.170;4.442;2022-12-29T04:23:53;6.55;;;0.93;;
25922;SDS011;13725;51.170;4.442;2022-12-29T04:26:19;9.52;;;1.30;;
25922;SDS011;13725;51.170;4.442;2022-12-29T04:29:14;8.80;;;1.58;;
25922;SDS011;13725;51.170;4.442;2022-12-29T04:31:53;5.18;;;0.68;;
25922;SDS011;13725;51.170;4.442;2022-12-29T04:34:19;7.22;;;1.10;;
25922;SDS011;13725;51.170;4.442;2022-12-29T04:36:46;7.05;;;0.80;;
25922;SDS011;13725;51.170;4.442;2022-12-29T04:39:12;5.57;;;1.00;;
25922;SDS011;13725;51.170;4.442;2022-12-29T04:41:39;9.95;;;0.88;;
25922;SDS011;13725;51.170;4.442;2022-12-29T04:44:07;8.52;;;0.77;;
25922;SDS011;13725;51.170;4.442;2022-12-29T04:46:54;4.50;;;0.77;;
25922;SDS011;13725;51.170;4.442;2022-12-29T04:49:42;7.10;;;0.77;;
25922;SDS011;13725;51.170;4.442;2022-12-29T04:52:26;10.38;;;0.80;;
25922;SDS011;13725;51.170;4.442;2022-12-29T04:54:54;5.68;;;0.80;;
25922;SDS011;13725;51.170;4.442;2022-12-29T04:57:20;6.78;;;1.15;;
25922;SDS011;13725;51.170;4.442;2022-12-29T04:59:50;8.82;;;1.15;;
25922;SDS011;13725;51.170;4.442;2022-12-29T05:02:17;5.38;;;1.35;;
25922;SDS011;13725;51.170;4.442;2022-12-29T05:04:44;5.63;;;1.63;;
25922;SDS011;13725;51.170;4.442;2022-12-29T05:07:10;10.05;;;1.83;;
25922;SDS011;13725;51.170;4.442;2022-12-29T05:09:36;3.42;;;0.60;;
25922;SDS011;13725;51.170;4.442;2022-12-29T05:12:02;7.13;;;0.88;;
25922;SDS011;13725;51.170;4.442;2022-12-29T05:14:30;3.55;;;0.88;;
25922;SDS011;13725;51.170;4.442;2022-12-29T05:16:56;3.45;;;0.90;;
25922;SDS011;13725;51.170;4.442;2022-12-29T05:19:23;7.13;;;1.30;;
25922;SDS011;13725;51.170;4.442;2022-12-29T05:21:49;3.25;;;0.70;;
25922;SDS011;13725;51.170;4.442;2022-12-29T05:24:15;2.00;;;0.52;;
25922;SDS011;13725;51.170;4.442;2022-12-29T05:26:41;2.38;;;0.95;;
25922;SDS011;13725;51.170;4.442;2022-12-29T05:29:33;2.42;;;0.90;;
25922;SDS011;13725;51.170;4.442;2022-12-29T05:31:59;4.35;;;0.80;;
25922;SDS011;13725;51.170;4.442;2022-12-29T05:34:25;4.47;;;1.00;;
25922;SDS011;13725;51.170;4.442;2022-12-29T05:36:51;4.65;;;0.80;;
25922;SDS011;13725;51.170;4.442;2022-12-29T05:39:17;2.58;;;1.00;;
25922;SDS011;13725;51.170;4.442;2022-12-29T05:41:48;5.05;;;0.68;;
25922;SDS011;13725;51.170;4.442;2022-12-29T05:44:14;7.70;;;1.60;;
25922;SDS011;13725;51.170;4.442;2022-12-29T05:46:48;5.15;;;1.00;;
25922;SDS011;13725;51.170;4.442;2022-12-29T05:49:18;5.20;;;1.05;;
25922;SDS011;13725;51.170;4.442;2022-12-29T05:52:03;4.15;;;0.70;;
25922;SDS011;13725;51.170;4.442;2022-12-29T05:54:31;4.00;;;0.80;;
25922;SDS011;13725;51.170;4.442;2022-12-29T05:56:56;4.18;;;1.27;;
25922;SDS011;13725;51.170;4.442;2022-12-29T05:59:22;7.00;;;0.75;;
25922;SDS011;13725;51.170;4.442;2022-12-29T06:01:49;6.72;;;0.75;;
25922;SDS011;13725;51.170;4.442;2022-12-29T06:04:15;7.00;;;1.80;;
25922;SDS011;13725;51.170;4.442;2022-12-29T06:06:41;4.32;;;1.23;;
25922;SDS011;13725;51.170;4.442;2022-12-29T06:09:13;6.63;;;1.08;;
25922;SDS011;13725;51.170;4.442;2022-12-29T06:11:39;7.95;;;1.55;;
25922;SDS011;13725;51.170;4.442;2022-12-29T06:14:05;6.47;;;1.10;;
25922;SDS011;13725;51.170;4.442;2022-12-29T06:16:32;7.03;;;1.05;;
25922;SDS011;13725;51.170;4.442;2022-12-29T06:18:59;3.67;;;0.88;;
25922;SDS011;13725;51.170;4.442;2022-12-29T06:21:25;5.20;;;1.13;;
25922;SDS011;13725;51.170;4.442;2022-12-29T06:23:51;8.88;;;0.98;;
25922;SDS011;13725;51.170;4.442;2022-12-29T06:26:18;5.93;;;1.63;;
25922;SDS011;13725;51.170;4.442;2022-12-29T06:28:46;8.73;;;1.13;;
25922;SDS011;13725;51.170;4.442;2022-12-29T06:31:12;9.45;;;1.52;;
25922;SDS011;13725;51.170;4.442;2022-12-29T06:33:38;11.77;;;1.92;;
25922;SDS011;13725;51.170;4.442;2022-12-29T06:36:04;5.20;;;1.30;;
25922;SDS011;13725;51.170;4.442;2022-12-29T06:38:30;7.10;;;1.55;;
25922;SDS011;13725;51.170;4.442;2022-12-29T06:40:57;7.97;;;1.23;;
25922;SDS011;13725;51.170;4.442;2022-12-29T06:43:41;10.80;;;1.25;;
25922;SDS011;13725;51.170;4.442;2022-12-29T06:46:15;8.98;;;1.17;;
25922;SDS011;13725;51.170;4.442;2022-12-29T06:48:40;10.82;;;1.70;;
25922;SDS011;13725;51.170;4.442;2022-12-29T06:51:07;14.50;;;1.45;;
25922;SDS011;13725;51.170;4.442;2022-12-29T06:53:33;8.65;;;1.20;;
25922;SDS011;13725;51.170;4.442;2022-12-29T06:55:59;15.95;;;2.20;;
25922;SDS011;13725;51.170;4.442;2022-12-29T06:58:25;6.57;;;1.38;;
25922;SDS011;13725;51.170;4.442;2022-12-29T07:00:51;7.28;;;1.42;;
25922;SDS011;13725;51.170;4.442;2022-12-29T07:03:16;4.60;;;1.20;;
25922;SDS011;13725;51.170;4.442;2022-12-29T07:05:42;7.47;;;1.45;;
25922;SDS011;13725;51.170;4.442;2022-12-29T07:08:08;9.45;;;2.00;;
25922;SDS011;13725;51.170;4.442;2022-12-29T07:10:33;14.20;;;1.40;;
25922;SDS011;13725;51.170;4.442;2022-12-29T07:12:59;3.58;;;1.30;;
25922;SDS011;13725;51.170;4.442;2022-12-29T07:15:25;9.23;;;1.80;;
25922;SDS011;13725;51.170;4.442;2022-12-29T07:17:51;6.80;;;1.58;;
25922;SDS011;13725;51.170;4.442;2022-12-29T07:20:16;9.00;;;1.52;;
25922;SDS011;13725;51.170;4.442;2022-12-29T07:22:42;9.75;;;1.35;;
25922;SDS011;13725;51.170;4.442;2022-12-29T07:25:08;8.75;;;1.48;;
25922;SDS011;13725;51.170;4.442;2022-12-29T07:27:34;12.50;;;1.45;;
25922;SDS011;13725;51.170;4.442;2022-12-29T07:30:00;9.63;;;1.92;;
25922;SDS011;13725;51.170;4.442;2022-12-29T07:32:25;9.10;;;1.60;;
25922;SDS011;13725;51.170;4.442;2022-12-29T07:34:51;12.98;;;2.28;;
25922;SDS011;13725;51.170;4.442;2022-12-29T07:37:17;10.85;;;1.50;;
25922;SDS011;13725;51.170;4.442;2022-12-29T07:39:43;9.43;;;1.15;;
25922;SDS011;13725;51.170;4.442;2022-12-29T07:42:09;9.77;;;1.40;;
25922;SDS011;13725;51.170;4.442;2022-12-29T07:44:41;10.43;;;1.38;;
25922;SDS011;13725;51.170;4.442;2022-12-29T07:47:32;9.65;;;1.40;;
25922;SDS011;13725;51.170;4.442;2022-12-29T07:49:57;8.27;;;1.60;;
25922;SDS011;13725;51.170;4.442;2022-12-29T07:52:23;10.68;;;1.70;;
25922;SDS011;13725;51.170;4.442;2022-12-29T07:54:49;10.85;;;2.45;;
25922;SDS011;13725;51.170;4.442;2022-12-29T07:57:14;9.65;;;2.03;;
25922;SDS011;13725;51.170;4.442;2022-12-29T07:59:40;10.85;;;2.05;;
25922;SDS011;13725;51.170;4.442;2022-12-29T08:02:08;17.17;;;1.90;;
25922;SDS011;13725;51.170;4.442;2022-12-29T08:04:36;6.25;;;1.35;;
25922;SDS011;13725;51.170;4.442;2022-12-29T08:07:02;9.57;;;2.13;;
25922;SDS011;13725;51.170;4.442;2022-12-29T08:09:27;10.13;;;2.08;;
25922;SDS011;13725;51.170;4.442;2022-12-29T08:11:53;9.77;;;1.83;;
25922;SDS011;13725;51.170;4.442;2022-12-29T08:14:19;10.00;;;2.00;;
25922;SDS011;13725;51.170;4.442;2022-12-29T08:16:45;10.18;;;1.48;;
25922;SDS011;13725;51.170;4.442;2022-12-29T08:19:11;12.02;;;2.05;;
25922;SDS011;13725;51.170;4.442;2022-12-29T08:21:38;10.05;;;1.80;;
25922;SDS011;13725;51.170;4.442;2022-12-29T08:24:03;9.98;;;1.38;;
25922;SDS011;13725;51.170;4.442;2022-12-29T08:26:29;11.18;;;1.30;;
25922;SDS011;13725;51.170;4.442;2022-12-29T08:28:55;10.43;;;2.35;;
25922;SDS011;13725;51.170;4.442;2022-12-29T08:31:21;11.70;;;2.03;;
25922;SDS011;13725;51.170;4.442;2022-12-29T08:33:48;13.35;;;1.83;;
25922;SDS011;13725;51.170;4.442;2022-12-29T08:36:14;13.68;;;1.88;;
25922;SDS011;13725;51.170;4.442;2022-12-29T08:38:39;9.45;;;1.40;;
25922;SDS011;13725;51.170;4.442;2022-12-29T08:41:06;10.95;;;2.22;;
25922;SDS011;13725;51.170;4.442;2022-12-29T08:43:31;12.10;;;2.55;;
25922;SDS011;13725;51.170;4.442;2022-12-29T08:45:57;15.63;;;3.08;;
25922;SDS011;13725;51.170;4.442;2022-12-29T08:48:24;9.65;;;1.40;;
25922;SDS011;13725;51.170;4.442;2022-12-29T08:50:50;10.23;;;1.40;;
25922;SDS011;13725;51.170;4.442;2022-12-29T08:53:17;8.95;;;2.22;;
25922;SDS011;13725;51.170;4.442;2022-12-29T08:55:47;14.50;;;1.63;;
25922;SDS011;13725;51.170;4.442;2022-12-29T08:58:19;11.63;;;1.90;;
25922;SDS011;13725;51.170;4.442;2022-12-29T09:00:45;11.05;;;1.55;;
25922;SDS011;13725;51.170;4.442;2022-12-29T09:03:10;7.93;;;2.53;;
25922;SDS011;13725;51.170;4.442;2022-12-29T09:05:37;13.70;;;2.08;;
25922;SDS011;13725;51.170;4.442;2022-12-29T09:08:03;10.23;;;1.45;;
25922;SDS011;13725;51.170;4.442;2022-12-29T09:10:29;10.68;;;1.77;;
25922;SDS011;13725;51.170;4.442;2022-12-29T09:12:55;9.93;;;1.50;;
25922;SDS011;13725;51.170;4.442;2022-12-29T09:15:21;13.13;;;3.28;;
25922;SDS011;13725;51.170;4.442;2022-12-29T09:17:47;8.93;;;1.25;;
25922;SDS011;13725;51.170;4.442;2022-12-29T09:20:13;15.48;;;1.40;;
25922;SDS011;13725;51.170;4.442;2022-12-29T09:22:41;12.73;;;1.70;;
25922;SDS011;13725;51.170;4.442;2022-12-29T09:25:07;17.58;;;2.53;;
25922;SDS011;13725;51.170;4.442;2022-12-29T09:27:34;16.65;;;2.38;;
25922;SDS011;13725;51.170;4.442;2022-12-29T09:30:01;17.85;;;2.35;;
25922;SDS011;13725;51.170;4.442;2022-12-29T09:32:28;13.13;;;1.90;;
25922;SDS011;13725;51.170;4.442;2022-12-29T09:34:53;10.27;;;1.50;;
25922;SDS011;13725;51.170;4.442;2022-12-29T09:37:20;8.77;;;1.55;;
25922;SDS011;13725;51.170;4.442;2022-12-29T09:39:46;11.45;;;1.35;;
25922;SDS011;13725;51.170;4.442;2022-12-29T09:42:14;8.35;;;1.83;;
25922;SDS011;13725;51.170;4.442;2022-12-29T09:47:16;9.27;;;1.45;;
25922;SDS011;13725;51.170;4.442;2022-12-29T09:52:23;12.38;;;2.75;;
25922;SDS011;13725;51.170;4.442;2022-12-29T09:55:22;14.90;;;1.98;;
25922;SDS011;13725;51.170;4.442;2022-12-29T09:58:04;13.55;;;2.00;;
25922;SDS011;13725;51.170;4.442;2022-12-29T10:03:07;12.60;;;1.80;;
25922;SDS011;13725;51.170;4.442;2022-12-29T10:14:12;9.55;;;1.40;;
25922;SDS011;13725;51.170;4.442;2022-12-29T10:25:15;10.45;;;1.73;;
25922;SDS011;13725;51.170;4.442;2022-12-29T10:27:46;21.33;;;2.42;;
25922;SDS011;13725;51.170;4.442;2022-12-29T10:30:13;12.50;;;2.47;;
25922;SDS011;13725;51.170;4.442;2022-12-29T10:33:02;10.80;;;2.03;;
25922;SDS011;13725;51.170;4.442;2022-12-29T10:35:35;14.10;;;1.80;;
25922;SDS011;13725;51.170;4.442;2022-12-29T10:41:00;16.95;;;2.20;;
25922;SDS011;13725;51.170;4.442;2022-12-29T10:43:46;16.75;;;2.20;;
25922;SDS011;13725;51.170;4.442;2022-12-29T10:46:17;13.63;;;2.20;;
25922;SDS011;13725;51.170;4.442;2022-12-29T10:48:46;15.88;;;2.25;;
25922;SDS011;13725;51.170;4.442;2022-12-29T10:51:22;13.35;;;1.90;;
25922;SDS011;13725;51.170;4.442;2022-12-29T10:53:52;18.88;;;4.30;;
25922;SDS011;13725;51.170;4.442;2022-12-29T10:56:38;12.20;;;2.58;;
25922;SDS011;13725;51.170;4.442;2022-12-29T10:59:16;13.13;;;3.22;;
25922;SDS011;13725;51.170;4.442;2022-12-29T11:01:49;13.65;;;2.40;;
25922;SDS011;13725;51.170;4.442;2022-12-29T11:07:15;13.40;;;2.22;;
25922;SDS011;13725;51.170;4.442;2022-12-29T11:09:43;16.75;;;2.38;;
25922;SDS011;13725;51.170;4.442;2022-12-29T11:14:50;15.63;;;2.67;;
25922;SDS011;13725;51.170;4.442;2022-12-29T11:17:28;18.92;;;4.65;;
25922;SDS011;13725;51.170;4.442;2022-12-29T11:19:54;9.60;;;2.45;;
25922;SDS011;13725;51.170;4.442;2022-12-29T11:22:24;14.98;;;2.05;;
25922;SDS011;13725;51.170;4.442;2022-12-29T11:24:52;9.88;;;2.72;;
25922;SDS011;13725;51.170;4.442;2022-12-29T11:27:21;15.80;;;2.63;;
25922;SDS011;13725;51.170;4.442;2022-12-29T11:29:51;11.45;;;1.77;;
25922;SDS011;13725;51.170;4.442;2022-12-29T11:32:22;10.55;;;1.45;;
25922;SDS011;13725;51.170;4.442;2022-12-29T11:34:50;15.93;;;3.13;;
25922;SDS011;13725;51.170;4.442;2022-12-29T11:43:11;10.00;;;1.70;;
25922;SDS011;13725;51.170;4.442;2022-12-29T11:47:52;10.88;;;2.05;;
25922;SDS011;13725;51.170;4.442;2022-12-29T11:50:22;10.20;;;2.55;;
25922;SDS011;13725;51.170;4.442;2022-12-29T11:52:56;11.90;;;1.67;;
25922;SDS011;13725;51.170;4.442;2022-12-29T11:55:28;8.27;;;1.90;;
25922;SDS011;13725;51.170;4.442;2022-12-29T11:57:55;14.80;;;2.35;;
25922;SDS011;13725;51.170;4.442;2022-12-29T12:00:24;5.53;;;1.38;;
25922;SDS011;13725;51.170;4.442;2022-12-29T12:03:03;13.15;;;1.77;;
25922;SDS011;13725;51.170;4.442;2022-12-29T12:10:43;16.80;;;2.47;;
25922;SDS011;13725;51.170;4.442;2022-12-29T12:13:34;15.02;;;1.85;;
25922;SDS011;13725;51.170;4.442;2022-12-29T12:16:33;11.48;;;1.98;;
25922;SDS011;13725;51.170;4.442;2022-12-29T12:19:17;12.77;;;1.67;;
25922;SDS011;13725;51.170;4.442;2022-12-29T12:21:52;15.93;;;2.25;;
25922;SDS011;13725;51.170;4.442;2022-12-29T12:27:09;6.22;;;1.63;;
25922;SDS011;13725;51.170;4.442;2022-12-29T12:30:05;11.45;;;2.50;;
25922;SDS011;13725;51.170;4.442;2022-12-29T12:35:14;18.83;;;2.33;;
25922;SDS011;13725;51.170;4.442;2022-12-29T12:40:44;10.68;;;2.70;;
25922;SDS011;13725;51.170;4.442;2022-12-29T12:49:02;13.55;;;2.65;;
25922;SDS011;13725;51.170;4.442;2022-12-29T12:51:57;13.80;;;2.50;;
25922;SDS011;13725;51.170;4.442;2022-12-29T12:54:43;17.05;;;3.15;;
25922;SDS011;13725;51.170;4.442;2022-12-29T12:57:28;15.75;;;2.40;;
25922;SDS011;13725;51.170;4.442;2022-12-29T13:00:12;14.48;;;1.88;;
25922;SDS011;13725;51.170;4.442;2022-12-29T13:06:15;9.52;;;1.48;;
25922;SDS011;13725;51.170;4.442;2022-12-29T13:25:22;12.90;;;1.75;;
25922;SDS011;13725;51.170;4.442;2022-12-29T13:30:39;10.10;;;1.67;;
25922;SDS011;13725;51.170;4.442;2022-12-29T13:35:59;14.20;;;1.90;;
25922;SDS011;13725;51.170;4.442;2022-12-29T13:40:56;14.43;;;2.03;;
25922;SDS011;13725;51.170;4.442;2022-12-29T13:43:27;6.75;;;1.80;;
25922;SDS011;13725;51.170;4.442;2022-12-29T13:46:28;15.52;;;3.00;;
25922;SDS011;13725;51.170;4.442;2022-12-29T13:51:20;8.82;;;2.10;;
25922;SDS011;13725;51.170;4.442;2022-12-29T14:07:49;12.45;;;2.58;;
25922;SDS011;13725;51.170;4.442;2022-12-29T14:10:35;10.20;;;2.03;;
25922;SDS011;13725;51.170;4.442;2022-12-29T14:13:16;7.32;;;1.63;;
25922;SDS011;13725;51.170;4.442;2022-12-29T14:15:59;4.90;;;1.10;;
25922;SDS011;13725;51.170;4.442;2022-12-29T14:18:25;5.05;;;1.33;;
25922;SDS011;13725;51.170;4.442;2022-12-29T14:20:56;5.13;;;1.80;;
25922;SDS011;13725;51.170;4.442;2022-12-29T14:23:40;8.27;;;1.75;;
25922;SDS011;13725;51.170;4.442;2022-12-29T14:26:10;6.07;;;1.10;;
25922;SDS011;13725;51.170;4.442;2022-12-29T14:28:54;4.38;;;1.58;;
25922;SDS011;13725;51.170;4.442;2022-12-29T14:39:03;6.53;;;1.25;;
25922;SDS011;13725;51.170;4.442;2022-12-29T14:41:50;4.35;;;0.90;;
25922;SDS011;13725;51.170;4.442;2022-12-29T14:44:25;7.18;;;1.30;;
25922;SDS011;13725;51.170;4.442;2022-12-29T14:46:56;5.15;;;1.20;;
25922;SDS011;13725;51.170;4.442;2022-12-29T14:49:28;8.57;;;1.38;;
25922;SDS011;13725;51.170;4.442;2022-12-29T14:52:07;6.15;;;0.90;;
25922;SDS011;13725;51.170;4.442;2022-12-29T14:54:44;5.60;;;0.90;;
25922;SDS011;13725;51.170;4.442;2022-12-29T14:57:32;4.75;;;0.80;;
25922;SDS011;13725;51.170;4.442;2022-12-29T15:02:42;8.18;;;2.10;;
25922;SDS011;13725;51.170;4.442;2022-12-29T15:06:07;3.90;;;1.30;;
25922;SDS011;13725;51.170;4.442;2022-12-29T15:08:18;4.70;;;0.90;;
25922;SDS011;13725;51.170;4.442;2022-12-29T15:10:56;6.90;;;1.63;;
25922;SDS011;13725;51.170;4.442;2022-12-29T15:16:00;2.67;;;0.90;;
25922;SDS011;13725;51.170;4.442;2022-12-29T15:18:29;7.50;;;2.55;;
25922;SDS011;13725;51.170;4.442;2022-12-29T15:21:02;3.83;;;0.65;;
25922;SDS011;13725;51.170;4.442;2022-12-29T15:23:31;6.65;;;1.17;;
25922;SDS011;13725;51.170;4.442;2022-12-29T15:25:59;6.25;;;1.00;;
25922;SDS011;13725;51.170;4.442;2022-12-29T15:28:28;3.80;;;0.90;;
25922;SDS011;13725;51.170;4.442;2022-12-29T15:31:11;4.63;;;0.80;;
25922;SDS011;13725;51.170;4.442;2022-12-29T15:33:49;5.63;;;1.13;;
25922;SDS011;13725;51.170;4.442;2022-12-29T15:36:21;6.80;;;1.02;;
25922;SDS011;13725;51.170;4.442;2022-12-29T15:38:49;3.90;;;0.70;;
25922;SDS011;13725;51.170;4.442;2022-12-29T15:41:34;11.63;;;2.97;;
25922;SDS011;13725;51.170;4.442;2022-12-29T15:44:25;10.32;;;2.45;;
25922;SDS011;13725;51.170;4.442;2022-12-29T15:46:54;10.85;;;2.25;;
25922;SDS011;13725;51.170;4.442;2022-12-29T15:49:21;10.30;;;2.55;;
25922;SDS011;13725;51.170;4.442;2022-12-29T15:51:49;14.98;;;2.17;;
25922;SDS011;13725;51.170;4.442;2022-12-29T15:54:16;13.55;;;3.22;;
25922;SDS011;13725;51.170;4.442;2022-12-29T15:56:43;9.27;;;1.90;;
25922;SDS011;13725;51.170;4.442;2022-12-29T15:59:23;14.68;;;2.08;;
25922;SDS011;13725;51.170;4.442;2022-12-29T16:01:51;6.05;;;1.40;;
25922;SDS011;13725;51.170;4.442;2022-12-29T16:04:17;7.65;;;1.55;;
25922;SDS011;13725;51.170;4.442;2022-12-29T16:07:03;8.30;;;1.95;;
25922;SDS011;13725;51.170;4.442;2022-12-29T16:11:57;14.07;;;1.38;;
25922;SDS011;13725;51.170;4.442;2022-12-29T16:14:33;4.78;;;1.42;;
25922;SDS011;13725;51.170;4.442;2022-12-29T16:17:15;5.45;;;1.25;;
25922;SDS011;13725;51.170;4.442;2022-12-29T16:19:55;9.57;;;1.90;;
25922;SDS011;13725;51.170;4.442;2022-12-29T16:22:30;6.57;;;1.40;;
25922;SDS011;13725;51.170;4.442;2022-12-29T16:24:57;6.78;;;1.48;;
25922;SDS011;13725;51.170;4.442;2022-12-29T16:27:32;11.05;;;2.28;;
25922;SDS011;13725;51.170;4.442;2022-12-29T16:30:03;14.27;;;2.70;;
25922;SDS011;13725;51.170;4.442;2022-12-29T16:32:31;12.57;;;1.70;;
25922;SDS011;13725;51.170;4.442;2022-12-29T16:37:44;12.68;;;1.60;;
25922;SDS011;13725;51.170;4.442;2022-12-29T16:47:45;17.00;;;1.98;;
25922;SDS011;13725;51.170;4.442;2022-12-29T16:50:34;9.27;;;1.65;;
25922;SDS011;13725;51.170;4.442;2022-12-29T16:53:02;15.77;;;1.60;;
25922;SDS011;13725;51.170;4.442;2022-12-29T16:55:29;16.00;;;2.50;;
25922;SDS011;13725;51.170;4.442;2022-12-29T16:57:55;12.82;;;1.75;;
25922;SDS011;13725;51.170;4.442;2022-12-29T17:00:24;12.18;;;2.17;;
25922;SDS011;13725;51.170;4.442;2022-12-29T17:02:53;7.75;;;2.17;;
25922;SDS011;13725;51.170;4.442;2022-12-29T17:05:22;5.38;;;1.58;;
25922;SDS011;13725;51.170;4.442;2022-12-29T17:07:48;10.73;;;1.85;;
25922;SDS011;13725;51.170;4.442;2022-12-29T17:10:16;10.18;;;2.42;;
25922;SDS011;13725;51.170;4.442;2022-12-29T17:12:42;19.30;;;2.83;;
25922;SDS011;13725;51.170;4.442;2022-12-29T17:20:14;11.05;;;2.20;;
25922;SDS011;13725;51.170;4.442;2022-12-29T17:22:44;13.80;;;2.25;;
25922;SDS011;13725;51.170;4.442;2022-12-29T17:25:11;25.00;;;2.50;;
25922;SDS011;13725;51.170;4.442;2022-12-29T17:30:10;13.98;;;2.53;;
25922;SDS011;13725;51.170;4.442;2022-12-29T17:32:38;12.20;;;2.10;;
25922;SDS011;13725;51.170;4.442;2022-12-29T17:35:13;17.65;;;3.15;;
25922;SDS011;13725;51.170;4.442;2022-12-29T17:37:40;19.65;;;2.80;;
25922;SDS011;13725;51.170;4.442;2022-12-29T17:40:14;20.42;;;3.00;;
25922;SDS011;13725;51.170;4.442;2022-12-29T17:42:51;19.70;;;3.38;;
25922;SDS011;13725;51.170;4.442;2022-12-29T17:45:22;21.48;;;2.92;;
25922;SDS011;13725;51.170;4.442;2022-12-29T17:47:53;16.55;;;2.92;;
25922;SDS011;13725;51.170;4.442;2022-12-29T17:50:20;23.27;;;2.80;;